createdAt,value
2023-03-23T15:58:54.609Z,27.38
2023-03-23T16:01:26.146Z,29.65
2023-03-23T16:03:58.448Z,24.63
2023-03-23T16:06:28.967Z,23.65
2023-03-23T16:08:57.759Z,31.52
2023-03-23T16:11:27.920Z,29.48
2023-03-23T16:13:55.886Z,27.05
2023-03-23T16:16:27.541Z,26.98
2023-03-23T16:18:57.272Z,38.08
2023-03-23T16:21:26.080Z,30.30
2023-03-23T16:23:54.321Z,27.75
2023-03-23T16:26:22.298Z,35.40
2023-03-23T16:28:50.593Z,29.15
2023-03-23T16:31:23.199Z,24.60
2023-03-23T16:33:51.061Z,29.10
2023-03-23T16:36:18.823Z,28.25
2023-03-23T16:38:48.943Z,36.08
2023-03-23T16:41:17.788Z,30.52
2023-03-23T16:43:46.176Z,30.65
2023-03-23T16:46:14.400Z,29.35
2023-03-23T16:48:42.186Z,29.35
2023-03-23T16:53:40.064Z,51.13
2023-03-23T16:56:07.703Z,47.85
2023-03-23T16:58:35.759Z,54.70
2023-03-23T17:01:03.504Z,55.60
2023-03-23T17:03:38.167Z,53.10
2023-03-23T17:06:06.042Z,56.72
2023-03-23T17:08:33.854Z,40.70
2023-03-23T17:11:07.340Z,40.45
2023-03-23T17:13:35.244Z,46.10
2023-03-23T17:16:03.061Z,43.53
2023-03-23T17:18:31.998Z,50.58
2023-03-23T17:20:59.570Z,42.55
2023-03-23T17:23:27.137Z,46.78
2023-03-23T17:25:55.664Z,42.22
2023-03-23T17:28:23.304Z,46.40
2023-03-23T17:30:58.562Z,73.10
2023-03-23T17:33:27.300Z,66.50
2023-03-23T17:35:55.272Z,69.53
2023-03-23T17:38:24.483Z,66.05
2023-03-23T17:41:04.230Z,65.53
2023-03-23T17:43:33.752Z,62.05
2023-03-23T17:46:01.923Z,54.45
2023-03-23T17:48:29.699Z,46.58
2023-03-23T17:53:30.941Z,47.35
2023-03-23T17:56:06.912Z,50.63
2023-03-23T19:31:10.917Z,84.38
